Time;durP1;ratioP1;P1;durP2;ratioP2;P2;SDS_P1;SDS_P2;PMS_P1;PMS_P2;Temp;Humidity;BMP_temperature;BMP_pressure;BME280_temperature;BME280_humidity;BME280_pressure;Samples;Min_cycle;Max_cycle;Signal;HPM_P1;HPM_P2
2024/01/12 00:00:52;;;;;;;45.13;19.80;;;;;;;;;;10128724;29;20507;-82
2024/01/12 00:05:53;;;;;;;42.90;18.20;;;;;;;;;;10117879;29;20123;-81
2024/01/12 00:10:54;;;;;;;45.17;18.43;;;;;;;;;;10119834;29;20096;-81
2024/01/12 00:15:55;;;;;;;41.93;18.07;;;;;;;;;;10126062;29;20196;-81
2024/01/12 00:20:56;;;;;;;35.17;16.43;;;;;;;;;;10114238;29;20111;-81
2024/01/12 00:25:59;;;;;;;38.67;16.57;;;;;;;;;;10121260;29;20028;-81
2024/01/12 00:31:00;;;;;;;39.43;16.63;;;;;;;;;;10109705;29;20072;-83
2024/01/12 00:36:01;;;;;;;37.27;16.07;;;;;;;;;;10105721;29;20029;-83
2024/01/12 00:41:03;;;;;;;40.37;18.73;;;;;;;;;;10103311;29;20037;-82
2024/01/12 00:46:04;;;;;;;40.70;17.43;;;;;;;;;;10091904;29;20029;-82
2024/01/12 00:51:05;;;;;;;32.77;15.83;;;;;;;;;;10102453;29;20055;-82
2024/01/12 00:56:07;;;;;;;36.63;16.47;;;;;;;;;;10092411;29;20040;-82
2024/01/12 01:01:09;;;;;;;37.10;16.07;;;;;;;;;;10104139;29;20024;-81
2024/01/12 01:06:10;;;;;;;45.40;18.57;;;;;;;;;;10110244;29;20564;-83
2024/01/12 01:11:17;;;;;;;39.23;17.23;;;;;;;;;;10092522;23;20061;-83
2024/01/12 01:16:18;;;;;;;39.70;17.43;;;;;;;;;;10125148;29;20084;-80
2024/01/12 01:21:19;;;;;;;42.33;18.50;;;;;;;;;;10105182;29;20043;-81
2024/01/12 01:26:20;;;;;;;47.70;22.67;;;;;;;;;;10123924;29;20040;-82
2024/01/12 01:31:21;;;;;;;48.83;20.30;;;;;;;;;;10124379;29;20184;-82
2024/01/12 01:36:22;;;;;;;48.53;20.73;;;;;;;;;;10120484;29;20033;-81
2024/01/12 01:41:23;;;;;;;46.33;21.43;;;;;;;;;;10107037;29;20084;-82
2024/01/12 01:46:25;;;;;;;46.90;18.53;;;;;;;;;;10101190;29;20044;-82
2024/01/12 01:51:26;;;;;;;43.77;19.80;;;;;;;;;;10121178;29;20052;-81
2024/01/12 01:56:27;;;;;;;45.23;19.57;;;;;;;;;;10123146;29;20088;-83
2024/01/12 02:01:35;;;;;;;47.87;19.83;;;;;;;;;;10129519;29;20123;-82
2024/01/12 02:06:37;;;;;;;43.63;18.53;;;;;;;;;;10129244;29;20401;-81
2024/01/12 02:11:38;;;;;;;45.97;19.87;;;;;;;;;;10129115;29;20052;-82
2024/01/12 02:16:39;;;;;;;52.43;20.53;;;;;;;;;;10119759;29;20111;-82
2024/01/12 02:21:40;;;;;;;52.27;21.97;;;;;;;;;;10128916;29;20119;-82
2024/01/12 02:26:41;;;;;;;55.07;21.67;;;;;;;;;;10122217;29;20041;-82
2024/01/12 02:31:43;;;;;;;53.47;22.10;;;;;;;;;;10123085;29;20045;-82
2024/01/12 02:36:44;;;;;;;51.80;21.80;;;;;;;;;;10130669;29;20036;-81
2024/01/12 02:41:45;;;;;;;56.87;21.00;;;;;;;;;;10127489;29;20044;-83
2024/01/12 02:46:46;;;;;;;52.87;21.53;;;;;;;;;;10132417;23;20065;-83
2024/01/12 02:51:47;;;;;;;57.10;23.70;;;;;;;;;;10119107;29;20425;-81
2024/01/12 02:56:48;;;;;;;59.23;22.43;;;;;;;;;;10117409;29;20048;-81
2024/01/12 03:01:49;;;;;;;58.00;21.77;;;;;;;;;;10124870;29;20036;-82
2024/01/12 03:06:50;;;;;;;50.57;20.63;;;;;;;;;;10125293;29;20032;-81
2024/01/12 03:11:51;;;;;;;50.27;20.43;;;;;;;;;;10128546;29;20123;-81
2024/01/12 03:16:52;;;;;;;59.00;22.97;;;;;;;;;;10123743;29;20080;-83
2024/01/12 03:21:53;;;;;;;54.80;21.27;;;;;;;;;;10128126;29;20031;-83
2024/01/12 03:26:54;;;;;;;52.20;20.97;;;;;;;;;;10109768;29;20505;-81
2024/01/12 03:31:55;;;;;;;55.10;20.60;;;;;;;;;;10121551;29;20041;-83
2024/01/12 03:36:56;;;;;;;49.80;21.00;;;;;;;;;;10095699;29;20039;-80
2024/01/12 03:41:57;;;;;;;56.90;22.33;;;;;;;;;;10088257;29;20107;-81
2024/01/12 03:46:58;;;;;;;59.27;21.67;;;;;;;;;;10079430;29;20182;-81
2024/01/12 03:52:00;;;;;;;53.97;21.80;;;;;;;;;;10048647;29;20109;-82
2024/01/12 03:57:02;;;;;;;59.63;22.33;;;;;;;;;;10086600;29;20067;-83
2024/01/12 04:02:03;;;;;;;53.73;22.63;;;;;;;;;;10086473;29;20064;-81
2024/01/12 04:07:04;;;;;;;59.40;22.20;;;;;;;;;;10085269;29;20033;-82
2024/01/12 04:12:06;;;;;;;59.80;22.73;;;;;;;;;;10078624;29;20045;-83
2024/01/12 04:17:07;;;;;;;54.60;21.53;;;;;;;;;;10087628;29;20033;-81
2024/01/12 04:22:08;;;;;;;47.57;20.50;;;;;;;;;;10081811;29;20075;-83
2024/01/12 04:27:09;;;;;;;45.20;18.70;;;;;;;;;;10085695;29;20720;-84
2024/01/12 04:32:10;;;;;;;44.07;18.37;;;;;;;;;;10064758;29;20055;-81
2024/01/12 04:37:11;;;;;;;46.17;18.87;;;;;;;;;;10086404;29;20037;-81
2024/01/12 04:42:12;;;;;;;42.03;18.27;;;;;;;;;;10080209;29;20041;-80
2024/01/12 04:47:13;;;;;;;42.40;18.33;;;;;;;;;;10065366;29;20537;-80
2024/01/12 04:52:14;;;;;;;34.60;14.77;;;;;;;;;;10086430;29;20053;-82
2024/01/12 04:57:15;;;;;;;38.57;15.90;;;;;;;;;;10082998;29;20452;-82
2024/01/12 05:02:16;;;;;;;36.77;16.53;;;;;;;;;;10082757;29;20047;-81
2024/01/12 05:07:17;;;;;;;39.67;16.90;;;;;;;;;;10077004;29;20037;-80
2024/01/12 05:12:24;;;;;;;35.60;15.27;;;;;;;;;;10071327;29;20045;-80
2024/01/12 05:17:26;;;;;;;35.23;13.20;;;;;;;;;;10082710;29;20040;-79
2024/01/12 05:22:27;;;;;;;34.47;14.53;;;;;;;;;;10084002;29;20500;-78
2024/01/12 05:27:34;;;;;;;31.40;10.67;;;;;;;;;;10063144;29;20061;-81
2024/01/12 05:32:35;;;;;;;27.87;11.00;;;;;;;;;;10089320;29;20056;-79
2024/01/12 05:37:43;;;;;;;24.83;10.03;;;;;;;;;;10092928;29;20025;-80
2024/01/12 05:42:44;;;;;;;30.40;12.53;;;;;;;;;;10092824;29;20041;-82
2024/01/12 05:47:45;;;;;;;26.20;10.67;;;;;;;;;;10092018;29;20063;-78
2024/01/12 05:52:47;;;;;;;18.83;8.50;;;;;;;;;;10092316;29;20602;-78
2024/01/12 05:57:48;;;;;;;19.80;8.80;;;;;;;;;;10092574;29;20077;-78
2024/01/12 06:02:49;;;;;;;27.80;8.73;;;;;;;;;;10092188;29;20032;-78
2024/01/12 06:07:50;;;;;;;21.30;8.73;;;;;;;;;;10092288;29;20029;-80
2024/01/12 06:12:58;;;;;;;27.90;11.13;;;;;;;;;;10091374;29;20537;-78
2024/01/12 06:17:59;;;;;;;28.50;11.43;;;;;;;;;;10091693;29;20758;-78
2024/01/12 06:23:00;;;;;;;34.30;15.57;;;;;;;;;;10091052;29;20039;-78
2024/01/12 06:28:01;;;;;;;41.33;17.23;;;;;;;;;;10092051;29;20037;-78
2024/01/12 06:33:02;;;;;;;28.13;12.17;;;;;;;;;;10092035;29;20778;-80
2024/01/12 06:38:03;;;;;;;24.97;10.17;;;;;;;;;;10090510;29;20143;-78
2024/01/12 06:43:04;;;;;;;28.83;12.20;;;;;;;;;;10073830;29;20401;-78
2024/01/12 06:48:05;;;;;;;27.77;13.27;;;;;;;;;;10090112;29;20052;-78
2024/01/12 06:53:09;;;;;;;23.97;10.43;;;;;;;;;;10090984;29;20037;-78
2024/01/12 06:58:10;;;;;;;23.70;10.23;;;;;;;;;;10090229;29;20083;-81
2024/01/12 07:03:11;;;;;;;31.20;11.07;;;;;;;;;;10089896;29;20508;-79
2024/01/12 07:08:12;;;;;;;25.80;10.80;;;;;;;;;;10090765;29;20040;-79
2024/01/12 07:13:13;;;;;;;22.07;10.93;;;;;;;;;;10090181;29;20055;-78
2024/01/12 07:18:14;;;;;;;21.20;9.60;;;;;;;;;;10090186;29;20033;-78
2024/01/12 07:23:15;;;;;;;23.07;10.47;;;;;;;;;;10090038;29;20043;-78
2024/01/12 07:28:16;;;;;;;30.17;11.13;;;;;;;;;;10090067;29;20036;-80
2024/01/12 07:33:17;;;;;;;30.13;12.37;;;;;;;;;;10090119;29;20029;-81
2024/01/12 07:38:18;;;;;;;34.50;14.20;;;;;;;;;;10089018;29;20032;-79
2024/01/12 07:43:19;;;;;;;25.97;12.17;;;;;;;;;;10089054;29;20492;-81
2024/01/12 07:48:21;;;;;;;20.53;10.80;;;;;;;;;;10088767;29;20069;-79
2024/01/12 07:53:22;;;;;;;30.00;11.23;;;;;;;;;;10087735;29;20045;-78
2024/01/12 07:58:23;;;;;;;27.30;10.80;;;;;;;;;;10088700;29;20037;-81
2024/01/12 08:03:24;;;;;;;24.10;11.37;;;;;;;;;;10088341;29;20040;-78
2024/01/12 08:08:25;;;;;;;26.87;11.07;;;;;;;;;;10087950;29;20481;-78
2024/01/12 08:13:26;;;;;;;27.57;11.13;;;;;;;;;;10087455;29;20052;-78
2024/01/12 08:18:27;;;;;;;20.53;10.03;;;;;;;;;;10086784;29;20610;-78
2024/01/12 08:23:28;;;;;;;27.07;11.47;;;;;;;;;;10070354;29;20037;-82
2024/01/12 08:28:29;;;;;;;32.43;11.90;;;;;;;;;;10087093;29;20033;-80
2024/01/12 08:33:30;;;;;;;25.33;10.80;;;;;;;;;;10086539;29;20655;-80
2024/01/12 08:38:31;;;;;;;23.40;10.77;;;;;;;;;;10087070;29;20033;-81
2024/01/12 08:43:32;;;;;;;23.87;10.90;;;;;;;;;;10084688;29;20037;-82
2024/01/12 08:48:33;;;;;;;20.10;9.53;;;;;;;;;;10081701;29;20541;-81
2024/01/12 08:53:34;;;;;;;23.07;9.50;;;;;;;;;;10077549;29;20091;-81
2024/01/12 08:58:37;;;;;;;19.17;9.00;;;;;;;;;;10086903;29;20118;-81
2024/01/12 09:03:38;;;;;;;15.27;8.00;;;;;;;;;;10088630;29;20124;-79
2024/01/12 09:08:39;;;;;;;19.97;8.33;;;;;;;;;;10091273;29;20036;-80
2024/01/12 09:13:40;;;;;;;15.87;7.67;;;;;;;;;;10084025;29;20112;-79
2024/01/12 09:18:43;;;;;;;18.77;8.63;;;;;;;;;;10090609;29;20037;-82
2024/01/12 09:23:44;;;;;;;21.37;8.77;;;;;;;;;;10082581;29;20041;-79
2024/01/12 09:28:45;;;;;;;22.23;8.57;;;;;;;;;;10094467;29;20084;-80
2024/01/12 09:33:47;;;;;;;19.37;9.07;;;;;;;;;;10069864;29;20509;-80
2024/01/12 09:38:48;;;;;;;20.37;9.43;;;;;;;;;;10093305;29;20406;-79
2024/01/12 09:43:50;;;;;;;17.37;7.27;;;;;;;;;;10089439;29;20101;-79
2024/01/12 09:48:51;;;;;;;19.53;8.07;;;;;;;;;;10091808;29;20056;-82
2024/01/12 09:53:52;;;;;;;17.20;7.07;;;;;;;;;;10091818;29;20045;-79
2024/01/12 09:58:53;;;;;;;21.10;8.77;;;;;;;;;;10092178;29;20036;-82
2024/01/12 10:03:54;;;;;;;19.50;8.10;;;;;;;;;;10081109;29;20136;-79
2024/01/12 10:08:55;;;;;;;23.23;9.90;;;;;;;;;;10085081;29;20033;-81
2024/01/12 10:13:56;;;;;;;26.10;10.87;;;;;;;;;;10084638;29;20111;-79
2024/01/12 10:18:58;;;;;;;27.43;11.13;;;;;;;;;;10085308;29;20554;-79
2024/01/12 10:24:03;;;;;;;23.67;10.23;;;;;;;;;;10083044;29;20036;-82
2024/01/12 10:29:04;;;;;;;25.87;11.13;;;;;;;;;;10090707;29;20041;-79
2024/01/12 10:34:06;;;;;;;25.90;11.50;;;;;;;;;;10092238;29;20136;-83
2024/01/12 10:39:09;;;;;;;21.83;10.47;;;;;;;;;;10085443;29;20117;-80
2024/01/12 10:44:11;;;;;;;25.00;11.00;;;;;;;;;;10087635;29;20116;-80
2024/01/12 10:49:14;;;;;;;24.00;10.53;;;;;;;;;;10089954;29;20063;-83
2024/01/12 10:54:20;;;;;;;23.33;10.40;;;;;;;;;;10077437;29;20049;-84
2024/01/12 10:59:22;;;;;;;20.07;8.53;;;;;;;;;;10090058;29;20041;-82
2024/01/12 11:04:24;;;;;;;16.00;7.37;;;;;;;;;;10089265;29;20037;-84
2024/01/12 11:09:25;;;;;;;16.10;7.43;;;;;;;;;;10089703;29;20043;-80
2024/01/12 11:14:26;;;;;;;19.77;7.47;;;;;;;;;;10087545;29;20458;-81
2024/01/12 11:19:27;;;;;;;19.53;8.97;;;;;;;;;;10085840;29;20033;-81
2024/01/12 11:24:29;;;;;;;24.50;11.03;;;;;;;;;;10089619;29;20029;-80
2024/01/12 11:29:37;;;;;;;16.73;7.73;;;;;;;;;;10088700;29;20848;-81
2024/01/12 11:34:45;;;;;;;19.67;9.50;;;;;;;;;;10087917;29;20446;-80
2024/01/12 11:39:54;;;;;;;22.27;8.27;;;;;;;;;;10085613;29;20540;-80
2024/01/12 11:45:07;;;;;;;17.40;7.60;;;;;;;;;;10069198;29;20120;-82
2024/01/12 11:50:16;;;;;;;17.52;7.10;;;;;;;;;;10087353;29;20053;-81
2024/01/12 11:55:19;;;;;;;11.60;5.93;;;;;;;;;;10089805;29;20055;-80
2024/01/12 12:00:21;;;;;;;15.07;5.03;;;;;;;;;;10088514;29;20029;-79
2024/01/12 12:05:23;;;;;;;12.20;5.50;;;;;;;;;;10089744;29;20481;-82
2024/01/12 12:10:32;;;;;;;29.67;11.33;;;;;;;;;;10072520;29;20132;-80
2024/01/12 12:15:34;;;;;;;22.67;9.50;;;;;;;;;;10084231;29;20043;-82
2024/01/12 12:20:36;;;;;;;30.63;12.47;;;;;;;;;;10090355;29;20035;-79
2024/01/12 12:25:37;;;;;;;18.03;7.73;;;;;;;;;;10087647;29;20068;-80
2024/01/12 12:30:40;;;;;;;15.47;6.77;;;;;;;;;;10078829;29;20052;-82
2024/01/12 12:35:41;;;;;;;16.00;7.00;;;;;;;;;;10087676;29;20033;-81
2024/01/12 12:40:44;;;;;;;17.70;7.97;;;;;;;;;;10085449;29;20499;-80
2024/01/12 12:45:45;;;;;;;19.27;7.40;;;;;;;;;;10069525;29;20057;-82
2024/01/12 12:50:53;;;;;;;22.67;8.23;;;;;;;;;;10087189;29;20059;-81
2024/01/12 12:55:54;;;;;;;20.10;8.63;;;;;;;;;;10088425;29;20473;-80
2024/01/12 13:00:55;;;;;;;23.83;11.17;;;;;;;;;;10087512;29;20029;-81
2024/01/12 13:05:56;;;;;;;17.07;8.63;;;;;;;;;;10102036;23;20539;-81
2024/01/12 13:11:04;;;;;;;29.60;13.17;;;;;;;;;;10104867;29;20041;-81
2024/01/12 13:16:05;;;;;;;20.30;8.73;;;;;;;;;;10110623;29;20425;-82
2024/01/12 13:21:06;;;;;;;37.17;15.83;;;;;;;;;;10127413;29;20039;-80
2024/01/12 13:26:07;;;;;;;44.73;18.47;;;;;;;;;;10093099;29;20397;-80
2024/01/12 13:31:08;;;;;;;30.33;13.80;;;;;;;;;;10111531;29;20043;-80
2024/01/12 13:36:09;;;;;;;45.37;19.40;;;;;;;;;;10106653;29;20039;-84
2024/01/12 13:41:10;;;;;;;30.87;12.70;;;;;;;;;;10108728;29;20041;-84
2024/01/12 13:46:13;;;;;;;50.50;21.13;;;;;;;;;;10092795;29;20036;-81
2024/01/12 13:51:15;;;;;;;46.83;20.67;;;;;;;;;;10098627;29;20041;-82
2024/01/12 13:56:16;;;;;;;37.07;14.93;;;;;;;;;;10115274;29;20131;-85
2024/01/12 14:01:17;;;;;;;32.40;13.27;;;;;;;;;;10100700;29;20030;-85
2024/01/12 14:06:18;;;;;;;92.67;36.03;;;;;;;;;;10111779;29;20111;-85
2024/01/12 14:11:20;;;;;;;30.17;13.47;;;;;;;;;;10140565;29;20135;-82
2024/01/12 14:16:21;;;;;;;49.53;18.70;;;;;;;;;;10137515;29;20067;-82
2024/01/12 14:21:23;;;;;;;47.37;19.63;;;;;;;;;;10146696;29;20039;-80
2024/01/12 14:26:25;;;;;;;41.43;16.90;;;;;;;;;;10133904;29;20040;-83
2024/01/12 14:31:27;;;;;;;36.77;15.70;;;;;;;;;;10141338;29;20048;-84
2024/01/12 14:36:28;;;;;;;64.63;24.17;;;;;;;;;;10138481;29;20047;-85
2024/01/12 14:41:29;;;;;;;101.20;40.87;;;;;;;;;;10135781;29;20444;-81
2024/01/12 14:46:37;;;;;;;132.40;54.93;;;;;;;;;;10137855;29;20802;-82
2024/01/12 14:51:38;;;;;;;99.03;43.87;;;;;;;;;;10124772;29;20049;-85
2024/01/12 14:56:39;;;;;;;73.07;33.17;;;;;;;;;;10133791;29;20040;-84
2024/01/12 15:01:40;;;;;;;90.13;42.13;;;;;;;;;;10142678;29;20400;-83
2024/01/12 15:06:44;;;;;;;101.70;43.33;;;;;;;;;;10140631;29;20068;-82
2024/01/12 15:11:46;;;;;;;108.93;46.07;;;;;;;;;;10135994;29;20052;-82
2024/01/12 15:16:50;;;;;;;101.77;40.17;;;;;;;;;;10131667;29;20050;-85
2024/01/12 15:21:52;;;;;;;84.07;34.57;;;;;;;;;;10138885;29;20029;-85
2024/01/12 15:26:52;;;;;;;124.90;52.43;;;;;;;;;;10136965;29;20038;-82
2024/01/12 15:31:54;;;;;;;136.50;56.33;;;;;;;;;;10122467;29;20044;-88
2024/01/12 15:36:55;;;;;;;88.30;38.63;;;;;;;;;;10138883;29;20063;-80
2024/01/12 15:41:56;;;;;;;80.83;35.03;;;;;;;;;;10145855;29;20528;-81
2024/01/12 15:46:57;;;;;;;75.93;31.30;;;;;;;;;;10133983;29;20032;-80
2024/01/12 15:51:58;;;;;;;59.00;27.13;;;;;;;;;;10126160;29;20135;-83
2024/01/12 15:56:59;;;;;;;86.53;31.20;;;;;;;;;;10144574;29;20036;-81
2024/01/12 16:02:00;;;;;;;65.03;25.83;;;;;;;;;;10137908;29;20041;-80
2024/01/12 16:07:01;;;;;;;56.60;22.67;;;;;;;;;;10137532;29;20068;-82
2024/01/12 16:12:02;;;;;;;63.70;25.70;;;;;;;;;;10137281;29;20048;-79
2024/01/12 16:17:03;;;;;;;59.97;24.30;;;;;;;;;;10124885;29;20397;-85
2024/01/12 16:22:05;;;;;;;60.80;23.37;;;;;;;;;;10135777;29;20718;-81
2024/01/12 16:27:06;;;;;;;73.87;29.90;;;;;;;;;;10134761;29;20032;-81
2024/01/12 16:32:07;;;;;;;71.47;29.60;;;;;;;;;;10136251;29;20084;-82
2024/01/12 16:37:08;;;;;;;67.43;28.97;;;;;;;;;;10132281;29;20138;-82
2024/01/12 16:42:09;;;;;;;50.43;22.00;;;;;;;;;;10142056;29;20037;-82
2024/01/12 16:47:10;;;;;;;78.33;31.43;;;;;;;;;;10134434;29;20112;-82
2024/01/12 16:52:11;;;;;;;101.23;37.63;;;;;;;;;;10138445;29;20048;-81
2024/01/12 16:57:12;;;;;;;91.67;37.23;;;;;;;;;;10140070;29;20560;-80
2024/01/12 17:02:13;;;;;;;93.47;34.63;;;;;;;;;;10144477;29;20254;-79
2024/01/12 17:07:20;;;;;;;79.63;32.13;;;;;;;;;;10145433;29;20074;-81
2024/01/12 17:12:22;;;;;;;50.23;20.17;;;;;;;;;;10143948;29;20036;-82
2024/01/12 17:17:23;;;;;;;60.17;27.73;;;;;;;;;;10153677;24;20530;-86
2024/01/12 17:22:24;;;;;;;60.27;26.20;;;;;;;;;;10067966;29;20034;-85
2024/01/12 17:27:37;;;;;;;42.60;17.57;;;;;;;;;;10100990;29;20047;-82
2024/01/12 17:32:40;;;;;;;51.80;20.93;;;;;;;;;;10092852;29;20056;-82
2024/01/12 17:37:48;;;;;;;68.90;26.57;;;;;;;;;;10142288;29;20036;-86
2024/01/12 17:42:49;;;;;;;59.40;23.73;;;;;;;;;;10131553;29;20035;-85
2024/01/12 17:47:57;;;;;;;53.47;23.03;;;;;;;;;;10129741;29;20051;-83
2024/01/12 17:52:58;;;;;;;39.23;18.67;;;;;;;;;;10134701;29;20074;-84
2024/01/12 17:57:59;;;;;;;50.43;22.77;;;;;;;;;;10144417;29;20029;-86
2024/01/12 18:03:00;;;;;;;46.30;20.60;;;;;;;;;;10143098;29;20069;-84
2024/01/12 18:08:04;;;;;;;50.87;21.27;;;;;;;;;;10146773;29;20146;-83
2024/01/12 18:13:05;;;;;;;44.63;20.13;;;;;;;;;;10141262;29;20044;-83
2024/01/12 18:24:11;;;;;;;46.00;21.37;;;;;;;;;;10108514;29;20048;-84
2024/01/12 18:29:13;;;;;;;61.57;26.20;;;;;;;;;;10103011;29;20539;-84
2024/01/12 18:34:14;;;;;;;53.83;24.87;;;;;;;;;;10097567;29;20111;-84
2024/01/12 18:39:15;;;;;;;111.80;43.23;;;;;;;;;;10098239;29;20039;-85
2024/01/12 18:44:16;;;;;;;107.30;41.73;;;;;;;;;;10086722;29;20075;-83
2024/01/12 18:49:17;;;;;;;109.10;42.50;;;;;;;;;;10099689;29;20531;-82
2024/01/12 18:54:21;;;;;;;93.03;36.93;;;;;;;;;;10089321;29;20093;-84
2024/01/12 18:59:22;;;;;;;100.23;43.27;;;;;;;;;;10093410;29;20036;-84
2024/01/12 19:04:23;;;;;;;81.50;34.23;;;;;;;;;;10099239;29;20392;-84
2024/01/12 19:09:24;;;;;;;73.50;28.40;;;;;;;;;;10109117;29;20036;-86
2024/01/12 19:14:25;;;;;;;66.90;25.70;;;;;;;;;;10098459;29;20404;-83
2024/01/12 19:19:26;;;;;;;69.50;23.30;;;;;;;;;;10093323;29;20063;-83
2024/01/12 19:24:27;;;;;;;54.13;20.93;;;;;;;;;;10136467;29;20044;-85
2024/01/12 19:29:28;;;;;;;58.20;22.90;;;;;;;;;;10132235;29;20869;-84
2024/01/12 19:34:30;;;;;;;51.63;22.97;;;;;;;;;;10133877;29;20134;-82
2024/01/12 19:39:59;;;;;;;66.23;27.07;;;;;;;;;;10132184;29;20036;-82
2024/01/12 19:45:03;;;;;;;73.63;32.83;;;;;;;;;;10127733;29;20037;-85
2024/01/12 19:50:05;;;;;;;57.70;26.43;;;;;;;;;;10136824;29;20039;-84
2024/01/12 19:55:09;;;;;;;61.93;25.60;;;;;;;;;;10127228;29;20092;-84
2024/01/12 20:00:11;;;;;;;57.83;24.70;;;;;;;;;;10136727;29;20039;-83
2024/01/12 20:05:12;;;;;;;53.43;24.00;;;;;;;;;;10149985;29;20032;-84
2024/01/12 20:15:52;;;;;;;60.50;25.67;;;;;;;;;;10148085;29;20138;-82
2024/01/12 20:21:03;;;;;;;49.57;23.47;;;;;;;;;;10130300;29;20509;-84
2024/01/12 20:26:04;;;;;;;70.90;27.67;;;;;;;;;;10143275;29;20032;-83
2024/01/12 20:31:06;;;;;;;71.00;28.37;;;;;;;;;;10132918;29;20063;-86
2024/01/12 20:36:07;;;;;;;77.30;30.60;;;;;;;;;;10139882;29;20100;-84
2024/01/12 20:41:08;;;;;;;60.33;27.40;;;;;;;;;;10145880;29;20036;-82
2024/01/12 20:46:09;;;;;;;68.77;27.80;;;;;;;;;;10129781;29;20075;-84
2024/01/12 20:51:10;;;;;;;60.17;26.80;;;;;;;;;;10130999;29;20602;-82
2024/01/12 20:56:11;;;;;;;83.23;33.80;;;;;;;;;;10137871;29;20036;-85
2024/01/12 21:01:18;;;;;;;92.83;36.23;;;;;;;;;;10135916;29;20508;-83
2024/01/12 21:06:29;;;;;;;78.87;32.97;;;;;;;;;;10129841;29;20036;-83
2024/01/12 21:11:42;;;;;;;91.27;36.17;;;;;;;;;;10125134;29;20095;-83
2024/01/12 21:17:15;;;;;;;87.40;34.93;;;;;;;;;;10128084;29;20039;-82
2024/01/12 21:27:55;;;;;;;97.17;36.77;;;;;;;;;;10122594;29;20033;-84
2024/01/12 21:32:56;;;;;;;88.90;36.03;;;;;;;;;;10135630;29;20044;-82
2024/01/12 21:37:57;;;;;;;76.33;31.30;;;;;;;;;;10141638;29;20085;-84
2024/01/12 21:42:58;;;;;;;56.23;24.80;;;;;;;;;;10139619;29;20561;-85
2024/01/12 21:47:59;;;;;;;57.03;23.50;;;;;;;;;;10138331;29;20039;-83
2024/01/12 21:53:00;;;;;;;59.70;25.60;;;;;;;;;;10133464;29;20042;-83
2024/01/12 21:58:04;;;;;;;58.90;25.50;;;;;;;;;;10135602;29;20034;-84
2024/01/12 22:03:05;;;;;;;57.70;23.90;;;;;;;;;;10141816;29;20079;-84
2024/01/12 22:08:06;;;;;;;57.07;24.43;;;;;;;;;;10139052;29;20046;-85
2024/01/12 22:13:07;;;;;;;56.43;24.90;;;;;;;;;;10139215;29;20059;-85
2024/01/12 22:18:08;;;;;;;56.57;25.27;;;;;;;;;;10140447;29;20045;-83
2024/01/12 22:23:09;;;;;;;56.23;25.40;;;;;;;;;;10148229;29;20468;-82
2024/01/12 22:28:10;;;;;;;60.33;26.50;;;;;;;;;;10146470;29;20035;-83
2024/01/12 22:33:11;;;;;;;60.47;26.47;;;;;;;;;;10146218;29;20416;-83
2024/01/12 22:38:13;;;;;;;59.17;27.07;;;;;;;;;;10147585;29;20032;-83
2024/01/12 22:43:14;;;;;;;51.13;22.47;;;;;;;;;;10143235;29;20080;-83
2024/01/12 22:48:15;;;;;;;52.30;23.67;;;;;;;;;;10148862;29;20040;-83
2024/01/12 22:53:16;;;;;;;56.03;24.43;;;;;;;;;;10138175;29;20075;-83
2024/01/12 22:58:19;;;;;;;49.93;23.43;;;;;;;;;;10139080;29;20047;-84
2024/01/12 23:03:20;;;;;;;55.33;23.20;;;;;;;;;;10143700;29;20040;-85
2024/01/12 23:08:21;;;;;;;55.90;23.33;;;;;;;;;;10139380;29;20119;-84
2024/01/12 23:13:22;;;;;;;48.33;22.80;;;;;;;;;;10133685;29;20045;-84
2024/01/12 23:18:23;;;;;;;40.37;19.20;;;;;;;;;;10133717;29;20037;-85
2024/01/12 23:23:24;;;;;;;44.90;20.67;;;;;;;;;;10130355;29;20463;-82
2024/01/12 23:28:25;;;;;;;45.97;20.07;;;;;;;;;;10136345;29;20087;-83
2024/01/12 23:33:26;;;;;;;42.70;19.80;;;;;;;;;;10121997;29;20261;-84
2024/01/12 23:38:27;;;;;;;41.07;19.40;;;;;;;;;;10129771;29;20028;-83
2024/01/12 23:43:28;;;;;;;40.20;18.00;;;;;;;;;;10133222;29;20489;-84
2024/01/12 23:48:35;;;;;;;39.47;18.10;;;;;;;;;;10146190;29;20040;-83
2024/01/12 23:53:36;;;;;;;37.53;17.83;;;;;;;;;;10127558;29;20051;-84
2024/01/12 23:58:37;;;;;;;36.93;15.33;;;;;;;;;;10125912;29;20110;-83
